Terminal Aerodrome Forecast
Issued by NWS New Orleans/Baton Rouge, LA

Home | Current Version | Previous Version | Text Only | Print | Product List | Glossary On
Versions: 1 2 3 4 5 6 7 8 9 10 11 12 13 14 15 16 17 18 19
000
FTUS44 KLIX 230500
TAFBTR
TAF
KBTR 230538Z 2306/2406 VRB03KT P6SM FEW250
     FM231600 VRB03KT P6SM SCT040
     FM231900 VRB03KT P6SM VCSH SCT035 BKN050
      TEMPO 2321/2401 3SM TSRA BKN040CB
     FM240200 VRB03KT P6SM FEW035 SCT120=

USA.gov is the U.S. government's official web portal to all federal, state and local government web resources and services.